KZZV/ZZV METAR and TAF weather

Enter ICAO airport designator
Station Type Date Time Source
KZZV METAR 2020/11/27 01:53 UTC NOAA

KZZV 270153Z AUTO 20003KT 10SM OVC031 10/07 A3010 RMK AO2 SLP194 T01000072


Station Type Date Time Source
KZZV Decoded METAR 2020/11/27 01:53 UTC NOAA

ZANESVILLE MUNICIPAL AIRPORT , OH, United States (KZZV) 39-57N 81-54W 268M
Nov 26, 2020 - 08:53 PM EST / 2020.11.27 0153 UTC
Wind: from the SSW (200 degrees) at 3 MPH (3 KT):0
Visibility: 10 mile(s):0
Sky conditions: overcast
Temperature: 50.0 F (10.0 C)
Dew Point: 45.0 F (7.2 C)
Relative Humidity: 82%
Pressure (altimeter): 30.1 in. Hg (1019 hPa)
ob: KZZV 270153Z AUTO 20003KT 10SM OVC031 10/07 A3010 RMK AO2 SLP194 T01000072
cycle: 2

Station Type Date Time Source
KZZV TAF 2020/11/27 02:36 UTC NOAA

TAF
AMD KZZV 270133Z 2702/2724 00000KT P6SM OVC030
FM271700 25004KT P6SM BKN021
FM272300 00000KT P6SM BKN028

Example: see airport list